sensor_id;sensor_type;location;lat;lon;timestamp;pressure;altitude;pressure_sealevel;temperature
76713;BMP280;65640;43.154;25.658;2023-05-19T00:00:55;100679.16;;;15.27
76713;BMP280;65640;43.154;25.658;2023-05-19T00:03:22;100675.84;;;15.21
76713;BMP280;65640;43.154;25.658;2023-05-19T00:05:48;100684.94;;;15.15
76713;BMP280;65640;43.154;25.658;2023-05-19T00:08:15;100681.31;;;15.11
76713;BMP280;65640;43.154;25.658;2023-05-19T00:10:42;100670.31;;;15.09
76713;BMP280;65640;43.154;25.658;2023-05-19T00:13:07;100682.81;;;15.03
76713;BMP280;65640;43.154;25.658;2023-05-19T00:15:33;100679.69;;;15.01
76713;BMP280;65640;43.154;25.658;2023-05-19T00:17:59;100681.34;;;14.97
76713;BMP280;65640;43.154;25.658;2023-05-19T00:20:24;100673.81;;;14.91
76713;BMP280;65640;43.154;25.658;2023-05-19T00:22:50;100673.13;;;14.85
76713;BMP280;65640;43.154;25.658;2023-05-19T00:25:15;100672.84;;;14.87
76713;BMP280;65640;43.154;25.658;2023-05-19T00:27:41;100673.91;;;14.86
76713;BMP280;65640;43.154;25.658;2023-05-19T00:30:07;100681.72;;;14.77
76713;BMP280;65640;43.154;25.658;2023-05-19T00:32:32;100675.97;;;14.75
76713;BMP280;65640;43.154;25.658;2023-05-19T00:34:58;100671.28;;;14.72
76713;BMP280;65640;43.154;25.658;2023-05-19T00:37:23;100671.84;;;14.69
76713;BMP280;65640;43.154;25.658;2023-05-19T00:39:49;100676.16;;;14.65
76713;BMP280;65640;43.154;25.658;2023-05-19T00:42:14;100674.78;;;14.67
76713;BMP280;65640;43.154;25.658;2023-05-19T00:44:40;100679.59;;;14.65
76713;BMP280;65640;43.154;25.658;2023-05-19T00:47:07;100677.72;;;14.66
76713;BMP280;65640;43.154;25.658;2023-05-19T00:49:32;100680.94;;;14.63
76713;BMP280;65640;43.154;25.658;2023-05-19T00:52:00;100686.22;;;14.63
76713;BMP280;65640;43.154;25.658;2023-05-19T00:54:26;100684.44;;;14.58
76713;BMP280;65640;43.154;25.658;2023-05-19T00:56:53;100679.97;;;14.59
76713;BMP280;65640;43.154;25.658;2023-05-19T00:59:19;100690.31;;;14.55
76713;BMP280;65640;43.154;25.658;2023-05-19T01:01:45;100681.63;;;14.55
76713;BMP280;65640;43.154;25.658;2023-05-19T01:04:15;100680.59;;;14.51
76713;BMP280;65640;43.154;25.658;2023-05-19T01:06:41;100679.75;;;14.42
76713;BMP280;65640;43.154;25.658;2023-05-19T01:09:07;100682.47;;;14.37
76713;BMP280;65640;43.154;25.658;2023-05-19T01:11:33;100683.38;;;14.27
76713;BMP280;65640;43.154;25.658;2023-05-19T01:13:58;100682.22;;;14.19
76713;BMP280;65640;43.154;25.658;2023-05-19T01:16:30;100685.94;;;14.18
76713;BMP280;65640;43.154;25.658;2023-05-19T01:21:38;100682.94;;;14.06
76713;BMP280;65640;43.154;25.658;2023-05-19T01:27:33;100680.06;;;14.03
76713;BMP280;65640;43.154;25.658;2023-05-19T01:33:02;100676.56;;;13.94
76713;BMP280;65640;43.154;25.658;2023-05-19T01:35:29;100672.34;;;13.93
76713;BMP280;65640;43.154;25.658;2023-05-19T01:37:56;100678.97;;;13.90
76713;BMP280;65640;43.154;25.658;2023-05-19T01:40:22;100684.28;;;13.85
76713;BMP280;65640;43.154;25.658;2023-05-19T01:42:50;100683.78;;;13.83
76713;BMP280;65640;43.154;25.658;2023-05-19T01:45:17;100695.41;;;13.82
76713;BMP280;65640;43.154;25.658;2023-05-19T01:47:46;100695.94;;;13.79
76713;BMP280;65640;43.154;25.658;2023-05-19T01:50:12;100699.31;;;13.84
76713;BMP280;65640;43.154;25.658;2023-05-19T01:52:37;100706.13;;;13.85
76713;BMP280;65640;43.154;25.658;2023-05-19T01:55:03;100708.25;;;13.83
76713;BMP280;65640;43.154;25.658;2023-05-19T02:03:52;100720.41;;;13.79
76713;BMP280;65640;43.154;25.658;2023-05-19T02:09:11;100726.25;;;13.76
76713;BMP280;65640;43.154;25.658;2023-05-19T02:11:51;100730.75;;;13.76
76713;BMP280;65640;43.154;25.658;2023-05-19T02:14:23;100733.56;;;13.79
76713;BMP280;65640;43.154;25.658;2023-05-19T02:16:50;100742.00;;;13.81
76713;BMP280;65640;43.154;25.658;2023-05-19T02:19:27;100742.47;;;13.65
76713;BMP280;65640;43.154;25.658;2023-05-19T02:21:53;100739.16;;;13.54
76713;BMP280;65640;43.154;25.658;2023-05-19T02:24:19;100744.72;;;13.53
76713;BMP280;65640;43.154;25.658;2023-05-19T02:26:47;100748.41;;;13.52
76713;BMP280;65640;43.154;25.658;2023-05-19T02:29:12;100757.16;;;13.47
76713;BMP280;65640;43.154;25.658;2023-05-19T02:31:37;100757.41;;;13.46
76713;BMP280;65640;43.154;25.658;2023-05-19T02:34:03;100767.72;;;13.42
76713;BMP280;65640;43.154;25.658;2023-05-19T02:36:31;100761.72;;;13.36
76713;BMP280;65640;43.154;25.658;2023-05-19T02:38:58;100768.59;;;13.32
76713;BMP280;65640;43.154;25.658;2023-05-19T02:41:25;100770.03;;;13.25
76713;BMP280;65640;43.154;25.658;2023-05-19T02:43:51;100761.94;;;13.16
76713;BMP280;65640;43.154;25.658;2023-05-19T02:46:16;100770.56;;;13.22
76713;BMP280;65640;43.154;25.658;2023-05-19T02:48:42;100774.03;;;13.17
76713;BMP280;65640;43.154;25.658;2023-05-19T02:51:07;100775.09;;;13.16
76713;BMP280;65640;43.154;25.658;2023-05-19T02:53:32;100777.66;;;13.21
76713;BMP280;65640;43.154;25.658;2023-05-19T02:55:58;100771.34;;;13.22
76713;BMP280;65640;43.154;25.658;2023-05-19T02:58:23;100776.88;;;13.21
76713;BMP280;65640;43.154;25.658;2023-05-19T03:00:48;100779.50;;;13.21
76713;BMP280;65640;43.154;25.658;2023-05-19T03:03:15;100782.41;;;13.19
76713;BMP280;65640;43.154;25.658;2023-05-19T03:05:41;100778.25;;;13.13
76713;BMP280;65640;43.154;25.658;2023-05-19T03:08:07;100784.31;;;13.14
76713;BMP280;65640;43.154;25.658;2023-05-19T03:10:32;100777.16;;;13.19
76713;BMP280;65640;43.154;25.658;2023-05-19T03:12:57;100779.50;;;13.21
76713;BMP280;65640;43.154;25.658;2023-05-19T03:15:23;100783.97;;;13.20
76713;BMP280;65640;43.154;25.658;2023-05-19T03:17:48;100787.91;;;13.23
76713;BMP280;65640;43.154;25.658;2023-05-19T03:20:14;100786.06;;;13.23
76713;BMP280;65640;43.154;25.658;2023-05-19T03:22:40;100793.97;;;13.23
76713;BMP280;65640;43.154;25.658;2023-05-19T03:25:06;100796.31;;;13.25
76713;BMP280;65640;43.154;25.658;2023-05-19T03:27:31;100802.03;;;13.32
76713;BMP280;65640;43.154;25.658;2023-05-19T03:29:56;100799.09;;;13.33
76713;BMP280;65640;43.154;25.658;2023-05-19T03:32:22;100808.22;;;13.41
76713;BMP280;65640;43.154;25.658;2023-05-19T03:34:47;100806.34;;;13.47
76713;BMP280;65640;43.154;25.658;2023-05-19T03:37:13;100817.81;;;13.56
76713;BMP280;65640;43.154;25.658;2023-05-19T03:39:38;100811.66;;;13.65
76713;BMP280;65640;43.154;25.658;2023-05-19T03:42:04;100808.59;;;13.77
76713;BMP280;65640;43.154;25.658;2023-05-19T03:44:29;100814.78;;;13.91
76713;BMP280;65640;43.154;25.658;2023-05-19T03:46:54;100816.28;;;13.97
76713;BMP280;65640;43.154;25.658;2023-05-19T03:49:20;100818.91;;;13.97
76713;BMP280;65640;43.154;25.658;2023-05-19T03:51:45;100820.47;;;13.98
76713;BMP280;65640;43.154;25.658;2023-05-19T03:54:11;100819.91;;;14.01
76713;BMP280;65640;43.154;25.658;2023-05-19T03:56:38;100822.75;;;14.05
76713;BMP280;65640;43.154;25.658;2023-05-19T03:59:04;100824.47;;;14.14
76713;BMP280;65640;43.154;25.658;2023-05-19T04:01:32;100822.34;;;14.16
76713;BMP280;65640;43.154;25.658;2023-05-19T04:03:57;100823.34;;;14.20
76713;BMP280;65640;43.154;25.658;2023-05-19T04:06:23;100830.94;;;14.22
76713;BMP280;65640;43.154;25.658;2023-05-19T04:08:48;100834.22;;;14.32
76713;BMP280;65640;43.154;25.658;2023-05-19T04:11:14;100838.34;;;14.39
76713;BMP280;65640;43.154;25.658;2023-05-19T04:13:39;100842.97;;;14.47
76713;BMP280;65640;43.154;25.658;2023-05-19T04:16:05;100836.78;;;14.56
76713;BMP280;65640;43.154;25.658;2023-05-19T04:18:31;100839.84;;;14.63
76713;BMP280;65640;43.154;25.658;2023-05-19T04:20:56;100839.38;;;14.75
76713;BMP280;65640;43.154;25.658;2023-05-19T04:23:22;100838.47;;;14.85
76713;BMP280;65640;43.154;25.658;2023-05-19T04:25:47;100838.66;;;14.88
76713;BMP280;65640;43.154;25.658;2023-05-19T04:28:13;100840.25;;;15.03
76713;BMP280;65640;43.154;25.658;2023-05-19T04:30:39;100841.31;;;15.15
76713;BMP280;65640;43.154;25.658;2023-05-19T04:33:07;100829.13;;;15.19
76713;BMP280;65640;43.154;25.658;2023-05-19T04:35:33;100838.16;;;15.32
76713;BMP280;65640;43.154;25.658;2023-05-19T04:37:58;100830.34;;;15.41
76713;BMP280;65640;43.154;25.658;2023-05-19T04:40:26;100830.22;;;15.59
76713;BMP280;65640;43.154;25.658;2023-05-19T04:42:51;100836.41;;;15.69
76713;BMP280;65640;43.154;25.658;2023-05-19T04:45:18;100837.38;;;15.73
76713;BMP280;65640;43.154;25.658;2023-05-19T04:47:43;100833.22;;;15.80
76713;BMP280;65640;43.154;25.658;2023-05-19T04:50:10;100838.09;;;16.00
76713;BMP280;65640;43.154;25.658;2023-05-19T04:52:36;100830.22;;;16.23
76713;BMP280;65640;43.154;25.658;2023-05-19T04:55:02;100842.09;;;16.34
76713;BMP280;65640;43.154;25.658;2023-05-19T04:57:28;100836.50;;;16.35
76713;BMP280;65640;43.154;25.658;2023-05-19T04:59:53;100842.59;;;16.36
76713;BMP280;65640;43.154;25.658;2023-05-19T05:02:24;100847.88;;;16.58
76713;BMP280;65640;43.154;25.658;2023-05-19T05:04:51;100855.69;;;16.63
76713;BMP280;65640;43.154;25.658;2023-05-19T05:07:19;100847.31;;;16.70
76713;BMP280;65640;43.154;25.658;2023-05-19T05:09:46;100855.56;;;16.68
76713;BMP280;65640;43.154;25.658;2023-05-19T05:12:13;100856.75;;;16.84
76713;BMP280;65640;43.154;25.658;2023-05-19T05:14:39;100855.84;;;16.89
76713;BMP280;65640;43.154;25.658;2023-05-19T05:17:05;100854.19;;;17.01
76713;BMP280;65640;43.154;25.658;2023-05-19T05:19:32;100864.69;;;17.15
76713;BMP280;65640;43.154;25.658;2023-05-19T05:21:58;100866.53;;;17.15
76713;BMP280;65640;43.154;25.658;2023-05-19T05:24:23;100865.94;;;17.18
76713;BMP280;65640;43.154;25.658;2023-05-19T05:26:49;100861.78;;;17.25
76713;BMP280;65640;43.154;25.658;2023-05-19T05:29:15;100867.06;;;17.25
76713;BMP280;65640;43.154;25.658;2023-05-19T05:31:40;100863.28;;;17.18
76713;BMP280;65640;43.154;25.658;2023-05-19T05:34:06;100866.88;;;17.22
76713;BMP280;65640;43.154;25.658;2023-05-19T05:36:31;100865.38;;;17.38
76713;BMP280;65640;43.154;25.658;2023-05-19T05:38:59;100878.06;;;17.49
76713;BMP280;65640;43.154;25.658;2023-05-19T05:41:26;100870.59;;;17.60
76713;BMP280;65640;43.154;25.658;2023-05-19T05:43:53;100868.13;;;17.72
76713;BMP280;65640;43.154;25.658;2023-05-19T05:46:19;100873.00;;;17.96
76713;BMP280;65640;43.154;25.658;2023-05-19T05:48:44;100876.94;;;17.99
76713;BMP280;65640;43.154;25.658;2023-05-19T05:51:10;100873.00;;;18.13
76713;BMP280;65640;43.154;25.658;2023-05-19T05:53:39;100877.81;;;18.28
76713;BMP280;65640;43.154;25.658;2023-05-19T05:56:07;100875.66;;;18.13
76713;BMP280;65640;43.154;25.658;2023-05-19T05:58:33;100873.97;;;18.17
76713;BMP280;65640;43.154;25.658;2023-05-19T06:00:59;100883.63;;;18.22
76713;BMP280;65640;43.154;25.658;2023-05-19T06:03:26;100876.13;;;18.24
76713;BMP280;65640;43.154;25.658;2023-05-19T06:05:52;100881.75;;;18.31
76713;BMP280;65640;43.154;25.658;2023-05-19T06:08:17;100889.22;;;18.46
76713;BMP280;65640;43.154;25.658;2023-05-19T06:10:43;100886.50;;;18.72
76713;BMP280;65640;43.154;25.658;2023-05-19T06:13:08;100888.84;;;18.73
76713;BMP280;65640;43.154;25.658;2023-05-19T06:15:35;100884.13;;;18.87
76713;BMP280;65640;43.154;25.658;2023-05-19T06:18:00;100886.50;;;18.80
76713;BMP280;65640;43.154;25.658;2023-05-19T06:20:26;100886.03;;;18.78
76713;BMP280;65640;43.154;25.658;2023-05-19T06:22:51;100885.50;;;19.02
76713;BMP280;65640;43.154;25.658;2023-05-19T06:25:16;100886.91;;;19.00
76713;BMP280;65640;43.154;25.658;2023-05-19T06:27:42;100890.81;;;18.93
76713;BMP280;65640;43.154;25.658;2023-05-19T06:30:08;100888.13;;;19.11
76713;BMP280;65640;43.154;25.658;2023-05-19T06:32:33;100894.81;;;19.46
76713;BMP280;65640;43.154;25.658;2023-05-19T06:34:58;100893.06;;;19.79
76713;BMP280;65640;43.154;25.658;2023-05-19T06:37:24;100897.19;;;19.68
76713;BMP280;65640;43.154;25.658;2023-05-19T06:39:51;100894.94;;;19.58
76713;BMP280;65640;43.154;25.658;2023-05-19T06:42:17;100896.25;;;19.64
76713;BMP280;65640;43.154;25.658;2023-05-19T06:44:50;100897.47;;;19.75
76713;BMP280;65640;43.154;25.658;2023-05-19T06:47:16;100901.81;;;19.80
76713;BMP280;65640;43.154;25.658;2023-05-19T06:49:42;100892.41;;;20.03
76713;BMP280;65640;43.154;25.658;2023-05-19T06:52:08;100895.94;;;20.07
76713;BMP280;65640;43.154;25.658;2023-05-19T06:54:34;100898.69;;;19.57
76713;BMP280;65640;43.154;25.658;2023-05-19T06:56:59;100900.78;;;19.43
76713;BMP280;65640;43.154;25.658;2023-05-19T06:59:24;100902.44;;;19.56
76713;BMP280;65640;43.154;25.658;2023-05-19T07:01:50;100900.63;;;19.89
76713;BMP280;65640;43.154;25.658;2023-05-19T07:04:15;100897.06;;;20.27
76713;BMP280;65640;43.154;25.658;2023-05-19T07:06:41;100902.50;;;20.30
76713;BMP280;65640;43.154;25.658;2023-05-19T07:09:06;100903.63;;;20.09
76713;BMP280;65640;43.154;25.658;2023-05-19T07:11:33;100908.88;;;19.76
76713;BMP280;65640;43.154;25.658;2023-05-19T07:13:58;100912.22;;;19.85
76713;BMP280;65640;43.154;25.658;2023-05-19T07:16:24;100903.69;;;19.79
76713;BMP280;65640;43.154;25.658;2023-05-19T07:18:49;100906.97;;;20.06
76713;BMP280;65640;43.154;25.658;2023-05-19T07:21:15;100911.59;;;20.09
76713;BMP280;65640;43.154;25.658;2023-05-19T07:23:40;100906.47;;;20.04
76713;BMP280;65640;43.154;25.658;2023-05-19T07:26:06;100899.28;;;20.04
76713;BMP280;65640;43.154;25.658;2023-05-19T07:28:31;100894.16;;;20.53
76713;BMP280;65640;43.154;25.658;2023-05-19T07:30:58;100910.47;;;20.63
76713;BMP280;65640;43.154;25.658;2023-05-19T07:33:24;100912.66;;;20.49
76713;BMP280;65640;43.154;25.658;2023-05-19T07:35:51;100909.31;;;19.99
76713;BMP280;65640;43.154;25.658;2023-05-19T07:38:16;100903.94;;;20.28
76713;BMP280;65640;43.154;25.658;2023-05-19T07:40:42;100907.31;;;20.49
76713;BMP280;65640;43.154;25.658;2023-05-19T07:43:07;100912.03;;;20.64
76713;BMP280;65640;43.154;25.658;2023-05-19T07:45:33;100913.78;;;20.60
76713;BMP280;65640;43.154;25.658;2023-05-19T07:47:58;100914.22;;;20.62
76713;BMP280;65640;43.154;25.658;2023-05-19T07:50:24;100912.63;;;20.94
76713;BMP280;65640;43.154;25.658;2023-05-19T07:52:49;100902.53;;;21.24
76713;BMP280;65640;43.154;25.658;2023-05-19T07:55:15;100903.19;;;21.21
76713;BMP280;65640;43.154;25.658;2023-05-19T07:57:42;100903.53;;;21.19
76713;BMP280;65640;43.154;25.658;2023-05-19T08:00:07;100912.94;;;21.41
76713;BMP280;65640;43.154;25.658;2023-05-19T08:02:36;100907.84;;;21.24
76713;BMP280;65640;43.154;25.658;2023-05-19T08:05:01;100905.28;;;21.52
76713;BMP280;65640;43.154;25.658;2023-05-19T08:07:27;100911.97;;;21.33
76713;BMP280;65640;43.154;25.658;2023-05-19T08:09:52;100908.22;;;21.34
76713;BMP280;65640;43.154;25.658;2023-05-19T08:12:17;100908.63;;;21.49
76713;BMP280;65640;43.154;25.658;2023-05-19T08:14:43;100910.97;;;21.26
76713;BMP280;65640;43.154;25.658;2023-05-19T08:17:08;100915.16;;;21.63
76713;BMP280;65640;43.154;25.658;2023-05-19T08:19:34;100912.06;;;21.89
76713;BMP280;65640;43.154;25.658;2023-05-19T08:21:59;100907.97;;;21.27
76713;BMP280;65640;43.154;25.658;2023-05-19T08:24:26;100908.97;;;21.11
76713;BMP280;65640;43.154;25.658;2023-05-19T08:26:54;100914.06;;;21.28
76713;BMP280;65640;43.154;25.658;2023-05-19T08:29:19;100911.56;;;21.83
76713;BMP280;65640;43.154;25.658;2023-05-19T08:31:44;100907.31;;;21.82
76713;BMP280;65640;43.154;25.658;2023-05-19T08:34:10;100912.69;;;21.70
76713;BMP280;65640;43.154;25.658;2023-05-19T08:36:36;100905.63;;;21.90
76713;BMP280;65640;43.154;25.658;2023-05-19T08:39:01;100905.88;;;22.13
76713;BMP280;65640;43.154;25.658;2023-05-19T08:41:27;100907.28;;;21.55
76713;BMP280;65640;43.154;25.658;2023-05-19T08:43:53;100905.66;;;21.38
76713;BMP280;65640;43.154;25.658;2023-05-19T08:46:20;100899.06;;;21.60
76713;BMP280;65640;43.154;25.658;2023-05-19T08:48:46;100900.38;;;22.06
76713;BMP280;65640;43.154;25.658;2023-05-19T08:51:32;100901.28;;;22.57
76713;BMP280;65640;43.154;25.658;2023-05-19T08:54:13;100904.59;;;22.50
76713;BMP280;65640;43.154;25.658;2023-05-19T08:56:39;100905.44;;;22.54
76713;BMP280;65640;43.154;25.658;2023-05-19T08:59:06;100906.28;;;22.27
76713;BMP280;65640;43.154;25.658;2023-05-19T09:01:32;100897.06;;;22.40
76713;BMP280;65640;43.154;25.658;2023-05-19T09:03:58;100899.84;;;22.59
76713;BMP280;65640;43.154;25.658;2023-05-19T09:06:24;100905.47;;;22.70
76713;BMP280;65640;43.154;25.658;2023-05-19T09:08:49;100904.66;;;23.00
76713;BMP280;65640;43.154;25.658;2023-05-19T09:11:15;100901.81;;;22.78
76713;BMP280;65640;43.154;25.658;2023-05-19T09:13:40;100890.38;;;22.46
76713;BMP280;65640;43.154;25.658;2023-05-19T09:16:06;100891.84;;;22.59
76713;BMP280;65640;43.154;25.658;2023-05-19T09:18:32;100902.31;;;22.83
76713;BMP280;65640;43.154;25.658;2023-05-19T09:20:59;100902.88;;;22.89
76713;BMP280;65640;43.154;25.658;2023-05-19T09:23:28;100891.97;;;23.13
76713;BMP280;65640;43.154;25.658;2023-05-19T09:25:54;100896.03;;;23.42
76713;BMP280;65640;43.154;25.658;2023-05-19T09:28:27;100895.47;;;23.52
76713;BMP280;65640;43.154;25.658;2023-05-19T09:31:10;100898.13;;;22.98
76713;BMP280;65640;43.154;25.658;2023-05-19T09:33:39;100892.34;;;22.80
76713;BMP280;65640;43.154;25.658;2023-05-19T09:36:06;100894.06;;;22.57
76713;BMP280;65640;43.154;25.658;2023-05-19T09:38:33;100895.56;;;22.70
76713;BMP280;65640;43.154;25.658;2023-05-19T09:41:00;100892.31;;;23.12
76713;BMP280;65640;43.154;25.658;2023-05-19T09:43:28;100884.97;;;23.43
76713;BMP280;65640;43.154;25.658;2023-05-19T09:46:12;100879.69;;;23.47
76713;BMP280;65640;43.154;25.658;2023-05-19T09:48:38;100888.91;;;23.69
76713;BMP280;65640;43.154;25.658;2023-05-19T09:51:06;100878.56;;;23.86
76713;BMP280;65640;43.154;25.658;2023-05-19T09:53:33;100877.28;;;23.99
76713;BMP280;65640;43.154;25.658;2023-05-19T09:56:00;100879.66;;;24.04
76713;BMP280;65640;43.154;25.658;2023-05-19T09:58:33;100875.81;;;24.02
76713;BMP280;65640;43.154;25.658;2023-05-19T10:01:02;100875.28;;;24.16
76713;BMP280;65640;43.154;25.658;2023-05-19T10:03:28;100875.34;;;23.77
76713;BMP280;65640;43.154;25.658;2023-05-19T10:05:56;100869.38;;;23.84
76713;BMP280;65640;43.154;25.658;2023-05-19T10:08:24;100878.13;;;24.03
76713;BMP280;65640;43.154;25.658;2023-05-19T10:10:51;100868.72;;;23.71
76713;BMP280;65640;43.154;25.658;2023-05-19T10:13:17;100872.31;;;23.79
76713;BMP280;65640;43.154;25.658;2023-05-19T10:15:43;100872.28;;;23.98
76713;BMP280;65640;43.154;25.658;2023-05-19T10:18:10;100872.19;;;24.14
76713;BMP280;65640;43.154;25.658;2023-05-19T10:20:37;100862.22;;;24.14
76713;BMP280;65640;43.154;25.658;2023-05-19T10:23:04;100873.00;;;24.18
76713;BMP280;65640;43.154;25.658;2023-05-19T10:25:31;100846.88;;;24.11
76713;BMP280;65640;43.154;25.658;2023-05-19T10:28:01;100851.78;;;24.05
76713;BMP280;65640;43.154;25.658;2023-05-19T10:32:53;100835.91;;;24.65
76713;BMP280;65640;43.154;25.658;2023-05-19T10:38:33;100830.13;;;24.63
76713;BMP280;65640;43.154;25.658;2023-05-19T10:41:18;100833.19;;;24.39
76713;BMP280;65640;43.154;25.658;2023-05-19T10:46:28;100826.25;;;24.60
76713;BMP280;65640;43.154;25.658;2023-05-19T10:48:54;100824.22;;;25.06
76713;BMP280;65640;43.154;25.658;2023-05-19T10:51:20;100817.00;;;25.44
76713;BMP280;65640;43.154;25.658;2023-05-19T10:53:45;100812.47;;;25.51
76713;BMP280;65640;43.154;25.658;2023-05-19T10:56:26;100817.56;;;25.60
76713;BMP280;65640;43.154;25.658;2023-05-19T10:58:57;100814.56;;;24.98
76713;BMP280;65640;43.154;25.658;2023-05-19T11:01:29;100809.47;;;24.37
76713;BMP280;65640;43.154;25.658;2023-05-19T11:03:55;100804.97;;;24.19
76713;BMP280;65640;43.154;25.658;2023-05-19T11:06:28;100797.31;;;24.43
76713;BMP280;65640;43.154;25.658;2023-05-19T11:09:21;100799.44;;;24.57
76713;BMP280;65640;43.154;25.658;2023-05-19T11:11:53;100792.25;;;24.91
76713;BMP280;65640;43.154;25.658;2023-05-19T11:14:21;100794.69;;;24.73
76713;BMP280;65640;43.154;25.658;2023-05-19T11:16:51;100790.38;;;24.65
76713;BMP280;65640;43.154;25.658;2023-05-19T11:19:29;100785.56;;;25.07
76713;BMP280;65640;43.154;25.658;2023-05-19T11:21:56;100773.84;;;25.19
76713;BMP280;65640;43.154;25.658;2023-05-19T11:32:31;100764.88;;;25.41
76713;BMP280;65640;43.154;25.658;2023-05-19T11:35:03;100765.53;;;25.75
76713;BMP280;65640;43.154;25.658;2023-05-19T11:37:31;100757.94;;;25.81
76713;BMP280;65640;43.154;25.658;2023-05-19T11:39:58;100763.69;;;25.39
76713;BMP280;65640;43.154;25.658;2023-05-19T11:42:25;100753.38;;;24.74
76713;BMP280;65640;43.154;25.658;2023-05-19T11:44:54;100751.81;;;24.73
76713;BMP280;65640;43.154;25.658;2023-05-19T11:47:20;100749.16;;;24.73
76713;BMP280;65640;43.154;25.658;2023-05-19T11:49:49;100746.63;;;24.54
76713;BMP280;65640;43.154;25.658;2023-05-19T11:52:16;100751.03;;;24.43
76713;BMP280;65640;43.154;25.658;2023-05-19T11:54:41;100741.63;;;24.26
76713;BMP280;65640;43.154;25.658;2023-05-19T11:57:08;100741.63;;;24.26
76713;BMP280;65640;43.154;25.658;2023-05-19T11:59:36;100733.78;;;24.14
76713;BMP280;65640;43.154;25.658;2023-05-19T12:02:22;100737.50;;;24.06
76713;BMP280;65640;43.154;25.658;2023-05-19T12:04:52;100721.84;;;24.08
76713;BMP280;65640;43.154;25.658;2023-05-19T12:07:20;100734.31;;;24.79
76713;BMP280;65640;43.154;25.658;2023-05-19T12:09:47;100724.72;;;25.45
76713;BMP280;65640;43.154;25.658;2023-05-19T12:12:13;100720.06;;;25.45
76713;BMP280;65640;43.154;25.658;2023-05-19T12:14:40;100721.28;;;25.51
76713;BMP280;65640;43.154;25.658;2023-05-19T12:17:10;100723.13;;;25.40
76713;BMP280;65640;43.154;25.658;2023-05-19T12:19:36;100716.03;;;25.69
76713;BMP280;65640;43.154;25.658;2023-05-19T12:22:02;100717.38;;;25.89
76713;BMP280;65640;43.154;25.658;2023-05-19T12:24:27;100722.84;;;26.03
76713;BMP280;65640;43.154;25.658;2023-05-19T12:27:04;100716.50;;;25.74
76713;BMP280;65640;43.154;25.658;2023-05-19T12:29:30;100713.06;;;25.77
76713;BMP280;65640;43.154;25.658;2023-05-19T12:31:55;100707.66;;;26.35
76713;BMP280;65640;43.154;25.658;2023-05-19T12:34:21;100704.69;;;26.55
76713;BMP280;65640;43.154;25.658;2023-05-19T12:36:47;100703.63;;;26.77
76713;BMP280;65640;43.154;25.658;2023-05-19T12:39:13;100714.72;;;26.68
76713;BMP280;65640;43.154;25.658;2023-05-19T12:41:38;100718.56;;;26.71
76713;BMP280;65640;43.154;25.658;2023-05-19T12:44:13;100702.81;;;26.66
76713;BMP280;65640;43.154;25.658;2023-05-19T12:46:39;100701.34;;;26.93
76713;BMP280;65640;43.154;25.658;2023-05-19T12:49:04;100718.72;;;26.20
76713;BMP280;65640;43.154;25.658;2023-05-19T12:51:30;100700.53;;;25.48
76713;BMP280;65640;43.154;25.658;2023-05-19T12:53:55;100709.91;;;25.25
76713;BMP280;65640;43.154;25.658;2023-05-19T12:56:24;100700.59;;;25.11
76713;BMP280;65640;43.154;25.658;2023-05-19T12:58:53;100692.94;;;25.10
76713;BMP280;65640;43.154;25.658;2023-05-19T13:01:19;100687.06;;;24.97
76713;BMP280;65640;43.154;25.658;2023-05-19T13:03:44;100688.06;;;24.86
76713;BMP280;65640;43.154;25.658;2023-05-19T13:06:10;100684.50;;;24.75
76713;BMP280;65640;43.154;25.658;2023-05-19T13:08:36;100684.84;;;24.70
76713;BMP280;65640;43.154;25.658;2023-05-19T13:11:03;100677.84;;;24.61
76713;BMP280;65640;43.154;25.658;2023-05-19T13:13:29;100684.94;;;24.47
76713;BMP280;65640;43.154;25.658;2023-05-19T13:15:55;100722.50;;;24.24
76713;BMP280;65640;43.154;25.658;2023-05-19T13:18:20;100780.09;;;24.18
76713;BMP280;65640;43.154;25.658;2023-05-19T13:20:46;100786.03;;;23.05
76713;BMP280;65640;43.154;25.658;2023-05-19T13:23:13;100783.94;;;21.82
76713;BMP280;65640;43.154;25.658;2023-05-19T13:25:39;100797.47;;;20.49
76713;BMP280;65640;43.154;25.658;2023-05-19T13:28:05;100810.84;;;19.95
76713;BMP280;65640;43.154;25.658;2023-05-19T13:30:35;100812.16;;;19.68
76713;BMP280;65640;43.154;25.658;2023-05-19T13:33:01;100810.53;;;19.34
76713;BMP280;65640;43.154;25.658;2023-05-19T13:35:27;100804.00;;;19.03
76713;BMP280;65640;43.154;25.658;2023-05-19T13:37:52;100809.00;;;18.66
76713;BMP280;65640;43.154;25.658;2023-05-19T13:40:18;100816.31;;;18.61
76713;BMP280;65640;43.154;25.658;2023-05-19T13:42:43;100824.44;;;18.56
76713;BMP280;65640;43.154;25.658;2023-05-19T13:45:09;100835.38;;;18.54
76713;BMP280;65640;43.154;25.658;2023-05-19T13:47:35;100836.19;;;18.46
76713;BMP280;65640;43.154;25.658;2023-05-19T13:50:02;100845.06;;;18.33
76713;BMP280;65640;43.154;25.658;2023-05-19T13:52:27;100849.28;;;18.34
76713;BMP280;65640;43.154;25.658;2023-05-19T13:54:53;100853.50;;;18.43
76713;BMP280;65640;43.154;25.658;2023-05-19T13:57:18;100854.28;;;18.44
76713;BMP280;65640;43.154;25.658;2023-05-19T13:59:44;100847.38;;;18.60
76713;BMP280;65640;43.154;25.658;2023-05-19T14:02:10;100843.03;;;18.64
76713;BMP280;65640;43.154;25.658;2023-05-19T14:04:36;100845.19;;;18.62
76713;BMP280;65640;43.154;25.658;2023-05-19T14:07:03;100844.41;;;18.62
76713;BMP280;65640;43.154;25.658;2023-05-19T14:09:29;100835.84;;;18.56
76713;BMP280;65640;43.154;25.658;2023-05-19T14:11:55;100833.88;;;18.44
76713;BMP280;65640;43.154;25.658;2023-05-19T14:14:20;100835.41;;;18.37
76713;BMP280;65640;43.154;25.658;2023-05-19T14:16:46;100828.91;;;18.17